Thursday, August 21, 2014
20:06 UTC
  |  Log In   |  Register Free
Airport Search:

Ellington Field Airport
(KEFD)

FAA data valid effective July 24, 2014 until September 18, 2014 (unless otherwise noted).

 
 
 
 
 
 
 
 
 
 
 
 
 
 

Current Aviation Weather for Ellington Field Airport (KEFD)

The most recent METAR observation for KEFD was updated at: 1750 UTC
METAR Summary (Translated METAR)
KEFD
281750Z 00000KT 10SM FEW030 SCT250 33/23 A3012
KHOU
(6.7 nm NW from KEFD)
281753Z 28007KT 10SM FEW040 SCT250 33/21 A3010 RMK AO2 SLP196 8/101 T03330211 10333 20244 58008
TAF Summary (Translated TAF)
KEFD
2112/2218 VRB06KT 9999 FEW020 QNH3002INS BECMG 2113/2114 17009KT 9999 SKC QNH3003INS TEMPO 2118/2122 16010G15KT 8000 -TSRA BKN025CB BECMG 2202/2203 18006KT 9999 FEW020 QNH3004INS TX35/2121Z TN24/2210Z
KHOU
(6.7 nm NW from KEFD)
211723Z 2118/2218 18012KT P6SM SCT035 FM220200 17005KT P6SM SCT015 FM221500 18006KT P6SM SCT025 SCT250
  Airport Weather Conditions for KEFD

 Current Weather at EFD
91° F
Partly Cloudy with Haze
Southwest winds at 10.4 mph
EFD NOAA Radar

Pressure: 30.08 in
Humidity: 52%
Wind: Southwest at 10.4 MPH (9 KT)
Dew Point: 71.6°F
Visibility: 7.00 mi


Airport Weather Forecast for KEFD

Translated METAR and TAF for KEFD
Translated METAR for KEFD (2000 UTC 21 August 2014)
found at http://aviationweather.gov/adds/metars/
 
METAR text: KEFD 211950Z 17010KT 10SM SCT036 34/20 A3006
Conditions at: KEFD (HOUSTON/ELLINGTO, TX, US) observed 1950 UTC 21 August 2014
Temperature: 34.0°C (93°F)
Dewpoint: 20.0°C (68°F) [RH = 44%]
Pressure (altimeter): 30.06 inches Hg (1018.0 mb)
Winds: from the S (170 degrees) at 12 MPH (10 knots; 5.2 m/s)
Visibility: 10 or more miles (16+ km)
Ceiling: at least 12,000 feet AGL
Clouds: scattered clouds at 3600 feet AGL
Weather: no significant weather observed at this time
Translated TAF for KEFD
Forecast for: KEFD (HOUSTON/ELLINGTO, TX, US)
TAF Text: TAF KEFD 2112/2218 VRB06KT 9999 FEW020 QNH3002INS
Forecast period: 1200 to 1300 UTC 21 August 2014
Forecast type: FROM: standard forecast or significant change
Winds: variable direction winds at 7 MPH (6 knots; 3.1 m/s)
Visibility: 6 or more miles (10+ km)
Clouds: few clouds at 2000 feet AGL
Weather: no significant weather forecast for this period
TAF Text: BECMG 2113/2114 17009KT 9999 SKC QNH3003INS
Forecast period: 1300 UTC 21 August 2014 to 0200 UTC 22 August 2014
Forecast type: BECOMING: Conditions expected to become as follows by 1400 UTC 21 August 2014
Winds: from the S (170 degrees) at 10 MPH (9 knots; 4.7 m/s)
Visibility: 6 or more miles (10+ km)
Clouds: clear skies
Weather: no significant weather forecast for this period
TAF Text: TEMPO 2118/2122 16010G15KT 8000 -TSRA BKN025CB
Forecast period: 1800 to 2200 UTC 21 August 2014
Forecast type: TEMPORARY: The following changes expected for less than half the time period
Winds: from the SSE (160 degrees) at 12 MPH (10 knots; 5.2 m/s)
gusting to 17 MPH (15 knots; 7.8 m/s)
Visibility: 5 miles (8 km)
Ceiling: 2500 feet AGL
Clouds: broken clouds at 2500 feet AGL
Weather: -TSRA  (light rain associated with thunderstorm(s))
TAF Text: BECMG 2202/2203 18006KT 9999 FEW020 QNH3004INS TX35/2121Z TN24/2210Z
Forecast period: 0200 to 1800 UTC 22 August 2014
Forecast type: BECOMING: Conditions expected to become as follows by 0300 UTC 22 August 2014
Winds: from the S (180 degrees) at 7 MPH (6 knots; 3.1 m/s)
Visibility: 6 or more miles (10+ km)
Clouds: few clouds at 2000 feet AGL
Weather: no significant weather forecast for this period

Find All Airport Services Find A Hotel Find A Rental Car Find A Golf Course Find A Restaurant $100 Hamburger



FBO's on the Field
FBO Company Facility Photos Services Transportation Aviation Fuel Prices: Prices include tax
Catering Weather Repair Courtesy Rental Type 100LL JetA JetA+ MOGAS 8087
 
Southwest Airport Services

This FBO has not yet been rated
FS:Texaco
Last Updated: Jul-24
Login to update fuel prices
SS:
Contact Southwest Airport ServicesMore FBO Information
 
Add another FBO Facility Photos Catering Weather Repair Courtesy Rental Type 100LL JetA JetA+ MOGAS 8087
Services Transportation Aviation Fuel Prices: Prices include tax


GlobalAir.com Airport Resource Center model-print
model-print
model-print
model-print